Time;durP1;ratioP1;P1;durP2;ratioP2;P2;SDS_P1;SDS_P2;PMS_P1;PMS_P2;Temp;Humidity;BMP_temperature;BMP_pressure;BME280_temperature;BME280_humidity;BME280_pressure;Samples;Min_cycle;Max_cycle;Signal;HPM_P1;HPM_P2
2021/07/03 00:00:56;;;;;;;33.53;20.17;;;;;;;;;;4391947;32;20591;-81
2021/07/03 00:03:22;;;;;;;38.17;22.02;;;;;;;;;;4391840;32;20111;-81
2021/07/03 00:05:53;;;;;;;28.20;17.70;;;;;;;;;;4391329;32;20160;-82
2021/07/03 00:08:27;;;;;;;30.33;19.30;;;;;;;;;;4377746;32;20173;-82
2021/07/03 00:10:54;;;;;;;30.77;19.12;;;;;;;;;;4391633;32;20122;-82
2021/07/03 00:13:24;;;;;;;40.10;23.90;;;;;;;;;;4393985;32;20597;-82
2021/07/03 00:15:58;;;;;;;33.55;19.80;;;;;;;;;;4406418;32;20212;-82
2021/07/03 00:18:54;;;;;;;38.00;22.80;;;;;;;;;;4406500;32;20126;-83
2021/07/03 00:22:15;;;;;;;;;;;;;;;;;;;;;
2021/07/03 00:27:27;;;;;;;34.85;20.80;;;;;;;;;;4369841;32;20196;-81
2021/07/03 00:30:11;;;;;;;;;;;;;;;;;;;;;
2021/07/03 00:32:37;;;;;;;39.90;22.23;;;;;;;;;;4405860;32;20188;-81
2021/07/03 00:38:46;;;;;;;41.42;22.00;;;;;;;;;;4375590;32;20173;-82
2021/07/03 00:41:14;;;;;;;36.25;21.30;;;;;;;;;;4406387;32;20177;-81
2021/07/03 00:43:40;;;;;;;31.62;19.95;;;;;;;;;;4405795;32;20155;-82
2021/07/03 00:46:15;;;;;;;;;;;;;;;;;;;;;
2021/07/03 00:48:41;;;;;;;34.38;19.52;;;;;;;;;;4406039;32;20203;-81
2021/07/03 00:51:06;;;;;;;40.03;23.12;;;;;;;;;;4391772;32;20555;-82
2021/07/03 00:53:34;;;;;;;32.92;21.37;;;;;;;;;;4405630;32;20185;-81
2021/07/03 00:56:10;;;;;;;33.55;19.85;;;;;;;;;;4406030;32;20131;-81
2021/07/03 00:58:35;;;;;;;35.10;20.25;;;;;;;;;;4406628;32;20200;-82
2021/07/03 01:01:09;;;;;;;36.83;22.13;;;;;;;;;;4405947;32;20565;-82
2021/07/03 01:03:40;;;;;;;36.83;22.80;;;;;;;;;;4406350;32;20202;-82
2021/07/03 01:06:16;;;;;;;34.83;21.80;;;;;;;;;;4392289;32;20188;-82
2021/07/03 01:08:52;;;;;;;36.00;21.70;;;;;;;;;;4405972;32;20121;-82
2021/07/03 01:11:56;;;;;;;;;;;;;;;;;;;;;
2021/07/03 01:14:27;;;;;;;38.80;22.70;;;;;;;;;;4365248;32;20260;-82
2021/07/03 01:17:24;;;;;;;42.65;26.08;;;;;;;;;;4406082;32;20232;-81
2021/07/03 01:32:49;;;;;;;46.05;25.17;;;;;;;;;;4341582;33;20217;-82
2021/07/03 01:38:33;;;;;;;39.28;23.00;;;;;;;;;;4358427;32;20197;-81
2021/07/03 01:41:31;;;;;;;42.67;24.15;;;;;;;;;;4346066;33;20221;-83
2021/07/03 01:44:20;;;;;;;37.35;22.48;;;;;;;;;;4386512;32;20153;-83
2021/07/03 01:46:59;;;;;;;50.17;26.75;;;;;;;;;;4391802;32;20170;-82
2021/07/03 01:49:37;;;;;;;52.67;30.12;;;;;;;;;;4405181;32;20563;-82
2021/07/03 01:52:38;;;;;;;53.97;30.23;;;;;;;;;;4405596;32;20146;-83
2021/07/03 01:55:38;;;;;;;;;;;;;;;;;;;;;
2021/07/03 01:58:43;;;;;;;;;;;;;;;;;;;;;
2021/07/03 02:01:12;;;;;;;59.80;31.23;;;;;;;;;;4409608;32;20158;-83
2021/07/03 02:03:38;;;;;;;43.00;24.25;;;;;;;;;;4409191;32;20210;-82
2021/07/03 02:06:12;;;;;;;56.92;32.20;;;;;;;;;;4409282;32;20138;-83
2021/07/03 02:08:45;;;;;;;57.17;31.67;;;;;;;;;;4408926;32;20192;-83
2021/07/03 02:11:11;;;;;;;48.92;26.73;;;;;;;;;;4395205;32;20193;-83
2021/07/03 02:13:36;;;;;;;59.08;31.58;;;;;;;;;;4408956;32;20168;-83
2021/07/03 02:16:05;;;;;;;47.05;28.65;;;;;;;;;;4394123;32;20200;-82
2021/07/03 02:22:17;;;;;;;48.65;27.83;;;;;;;;;;4365025;32;20584;-83
2021/07/03 02:25:14;;;;;;;44.03;26.92;;;;;;;;;;4382439;32;20170;-82
2021/07/03 02:27:49;;;;;;;52.92;30.40;;;;;;;;;;4380642;32;20200;-82
2021/07/03 02:30:27;;;;;;;43.95;26.67;;;;;;;;;;4408154;32;20138;-82
2021/07/03 02:33:07;;;;;;;55.38;32.70;;;;;;;;;;4393926;32;20233;-82
2021/07/03 02:35:39;;;;;;;54.00;31.00;;;;;;;;;;4394326;32;20641;-82
2021/07/03 02:38:04;;;;;;;49.40;29.33;;;;;;;;;;4408317;32;20137;-82
2021/07/03 02:40:30;;;;;;;44.50;26.98;;;;;;;;;;4407798;32;20224;-82
2021/07/03 02:42:55;;;;;;;45.35;27.58;;;;;;;;;;4408292;32;20150;-82
2021/07/03 02:45:26;;;;;;;50.45;29.87;;;;;;;;;;4393756;32;20177;-82
2021/07/03 02:48:03;;;;;;;47.03;27.90;;;;;;;;;;4393369;32;20166;-82
2021/07/03 02:50:28;;;;;;;47.30;30.67;;;;;;;;;;4393646;32;20169;-82
2021/07/03 02:52:54;;;;;;;45.47;27.52;;;;;;;;;;4393562;32;20158;-82
2021/07/03 02:55:22;;;;;;;45.50;29.12;;;;;;;;;;4407673;32;20201;-82
2021/07/03 02:58:17;;;;;;;53.33;30.42;;;;;;;;;;4391684;32;20664;-82
2021/07/03 03:00:43;;;;;;;47.40;30.25;;;;;;;;;;4386569;32;20630;-82
2021/07/03 03:03:08;;;;;;;52.25;31.42;;;;;;;;;;4407577;32;20196;-82
2021/07/03 03:05:44;;;;;;;55.60;32.53;;;;;;;;;;4392412;32;20185;-82
2021/07/03 03:08:23;;;;;;;51.30;30.98;;;;;;;;;;4407217;32;20142;-82
2021/07/03 03:10:57;;;;;;;71.57;40.92;;;;;;;;;;4385533;32;20506;-81
2021/07/03 03:13:50;;;;;;;59.55;35.80;;;;;;;;;;4407728;32;20148;-82
2021/07/03 03:16:31;;;;;;;;;;;;;;;;;;;;;
2021/07/03 03:19:05;;;;;;;55.78;32.38;;;;;;;;;;4406832;32;20177;-82
2021/07/03 03:21:56;;;;;;;54.33;31.60;;;;;;;;;;4407591;32;20204;-82
2021/07/03 03:27:38;;;;;;;58.05;33.80;;;;;;;;;;4330608;33;20688;-82
2021/07/03 03:30:24;;;;;;;66.60;37.78;;;;;;;;;;4338640;32;20128;-82
2021/07/03 03:33:09;;;;;;;63.25;37.25;;;;;;;;;;4407283;32;20207;-82
2021/07/03 03:35:35;;;;;;;59.60;33.30;;;;;;;;;;4393154;32;20628;-82
2021/07/03 03:38:00;;;;;;;57.38;33.65;;;;;;;;;;4406778;32;20245;-82
2021/07/03 03:40:27;;;;;;;76.05;42.00;;;;;;;;;;4407345;32;20571;-83
2021/07/03 03:42:53;;;;;;;66.25;37.17;;;;;;;;;;4406405;32;20608;-83
2021/07/03 03:45:39;;;;;;;64.70;36.88;;;;;;;;;;4406756;32;20131;-83
2021/07/03 03:48:08;;;;;;;73.28;40.08;;;;;;;;;;4407026;32;20131;-82
2021/07/03 03:50:42;;;;;;;62.25;35.50;;;;;;;;;;4392959;32;20153;-83
2021/07/03 03:53:58;;;;;;;61.97;34.50;;;;;;;;;;4391641;32;20215;-82
2021/07/03 03:56:24;;;;;;;60.83;36.45;;;;;;;;;;4402065;32;20161;-82
2021/07/03 03:59:15;;;;;;;73.43;42.00;;;;;;;;;;4407039;32;20418;-82
2021/07/03 04:01:46;;;;;;;60.08;35.47;;;;;;;;;;4363864;32;20193;-82
2021/07/03 04:04:21;;;;;;;58.40;34.45;;;;;;;;;;4406906;32;20318;-82
2021/07/03 04:06:54;;;;;;;70.32;41.97;;;;;;;;;;4407075;32;20208;-82
2021/07/03 04:09:31;;;;;;;58.33;34.88;;;;;;;;;;4393158;32;20315;-81
2021/07/03 04:12:10;;;;;;;65.93;38.28;;;;;;;;;;4406589;32;20149;-82
2021/07/03 04:15:11;;;;;;;;;;;;;;;;;;;;;
2021/07/03 04:17:59;;;;;;;;;;;;;;;;;;;;;
2021/07/03 04:20:39;;;;;;;66.50;38.40;;;;;;;;;;4360857;32;20586;-82
2021/07/03 04:23:21;;;;;;;62.17;37.35;;;;;;;;;;4392957;32;20142;-82
2021/07/03 04:25:47;;;;;;;56.33;34.45;;;;;;;;;;4392253;32;20166;-82
2021/07/03 04:28:12;;;;;;;64.97;37.22;;;;;;;;;;4392214;32;20163;-81
2021/07/03 04:30:38;;;;;;;66.72;37.97;;;;;;;;;;4392117;32;20166;-82
2021/07/03 04:33:03;;;;;;;71.07;41.13;;;;;;;;;;4393376;32;20481;-82
2021/07/03 04:35:28;;;;;;;65.35;37.35;;;;;;;;;;4406341;32;20158;-82
2021/07/03 04:37:54;;;;;;;73.20;40.08;;;;;;;;;;4391954;32;20159;-82
2021/07/03 04:40:19;;;;;;;72.75;38.88;;;;;;;;;;4406010;32;20146;-82
2021/07/03 04:42:44;;;;;;;71.28;40.90;;;;;;;;;;4392534;32;20161;-82
2021/07/03 04:45:10;;;;;;;61.50;37.42;;;;;;;;;;4405927;32;20241;-82
2021/07/03 04:47:38;;;;;;;56.65;35.60;;;;;;;;;;4391915;32;20217;-82
2021/07/03 04:50:04;;;;;;;74.22;41.50;;;;;;;;;;4405622;32;20158;-82
2021/07/03 04:52:56;;;;;;;67.40;40.20;;;;;;;;;;4405724;32;20640;-82
2021/07/03 04:55:43;;;;;;;55.40;33.42;;;;;;;;;;4405469;32;20201;-82
2021/07/03 04:58:08;;;;;;;61.13;35.78;;;;;;;;;;4406009;32;20567;-82
2021/07/03 05:00:34;;;;;;;55.53;34.30;;;;;;;;;;4406666;32;20244;-82
2021/07/03 05:03:03;;;;;;;58.05;34.72;;;;;;;;;;4391822;32;20161;-82
2021/07/03 05:05:31;;;;;;;66.78;39.40;;;;;;;;;;4405607;32;20138;-82
2021/07/03 05:07:59;;;;;;;52.30;35.10;;;;;;;;;;4405359;32;20207;-82
2021/07/03 05:10:24;;;;;;;64.82;36.72;;;;;;;;;;4389668;32;20674;-82
2021/07/03 05:12:54;;;;;;;59.83;37.55;;;;;;;;;;4405497;32;20173;-82
2021/07/03 05:15:31;;;;;;;64.35;37.08;;;;;;;;;;4389810;32;20178;-82
2021/07/03 05:17:56;;;;;;;56.83;35.67;;;;;;;;;;4390869;32;20196;-82
2021/07/03 05:20:23;;;;;;;53.80;34.30;;;;;;;;;;4390039;32;20146;-82
2021/07/03 05:22:59;;;;;;;65.85;40.10;;;;;;;;;;4390443;32;20221;-83
2021/07/03 05:25:25;;;;;;;64.07;38.47;;;;;;;;;;4376300;32;20153;-77
2021/07/03 05:27:50;;;;;;;62.92;35.08;;;;;;;;;;4376173;32;20264;-75
2021/07/03 05:30:18;;;;;;;60.95;38.63;;;;;;;;;;4390802;32;20424;-82
2021/07/03 05:32:52;;;;;;;61.53;38.85;;;;;;;;;;4389636;32;20268;-81
2021/07/03 05:35:20;;;;;;;57.22;35.15;;;;;;;;;;4390521;32;20131;-80
2021/07/03 05:38:03;;;;;;;56.30;36.13;;;;;;;;;;4389945;32;20134;-82
2021/07/03 05:40:43;;;;;;;59.63;36.13;;;;;;;;;;4376968;32;20162;-81
2021/07/03 05:43:17;;;;;;;63.65;38.38;;;;;;;;;;4377342;32;20153;-82
2021/07/03 05:46:06;;;;;;;67.37;42.00;;;;;;;;;;4390448;32;20150;-81
2021/07/03 05:48:37;;;;;;;60.17;37.67;;;;;;;;;;4390958;32;20239;-81
2021/07/03 05:51:05;;;;;;;62.70;38.03;;;;;;;;;;4363342;32;20193;-82
2021/07/03 05:53:41;;;;;;;61.28;38.10;;;;;;;;;;4361424;32;20312;-82
2021/07/03 05:56:26;;;;;;;62.17;39.75;;;;;;;;;;4362053;32;20157;-83
2021/07/03 05:59:03;;;;;;;60.97;37.70;;;;;;;;;;4375989;32;20189;-83
2021/07/03 06:01:29;;;;;;;68.70;41.28;;;;;;;;;;4390328;32;20142;-82
2021/07/03 06:04:00;;;;;;;58.90;37.47;;;;;;;;;;4381011;32;20642;-83
2021/07/03 06:06:37;;;;;;;60.38;37.78;;;;;;;;;;4376146;32;20154;-82
2021/07/03 06:09:14;;;;;;;57.30;38.03;;;;;;;;;;4390096;32;20153;-83
2021/07/03 06:11:56;;;;;;;68.45;40.03;;;;;;;;;;4376613;32;20228;-82
2021/07/03 06:14:54;;;;;;;;;;;;;;;;;;;;;
2021/07/03 06:17:22;;;;;;;65.20;41.15;;;;;;;;;;4403019;32;20181;-83
2021/07/03 06:19:50;;;;;;;60.30;38.30;;;;;;;;;;4375836;32;20229;-84
2021/07/03 06:22:16;;;;;;;58.92;36.58;;;;;;;;;;4389576;32;20161;-83
2021/07/03 06:24:48;;;;;;;56.42;37.40;;;;;;;;;;4390023;32;20209;-82
2021/07/03 06:27:13;;;;;;;60.25;39.83;;;;;;;;;;4376173;32;20216;-82
2021/07/03 06:29:39;;;;;;;50.83;34.20;;;;;;;;;;4389537;32;20139;-82
2021/07/03 06:32:14;;;;;;;53.10;34.17;;;;;;;;;;4389567;32;20143;-82
2021/07/03 06:34:40;;;;;;;53.33;36.13;;;;;;;;;;4390188;32;20126;-82
2021/07/03 06:37:05;;;;;;;55.67;35.47;;;;;;;;;;4389518;32;20161;-81
2021/07/03 06:39:31;;;;;;;53.35;33.83;;;;;;;;;;4389711;32;20189;-83
2021/07/03 06:42:04;;;;;;;55.30;33.50;;;;;;;;;;4389775;32;20472;-82
2021/07/03 06:44:35;;;;;;;56.72;36.35;;;;;;;;;;4382619;32;20138;-79
2021/07/03 06:47:00;;;;;;;53.50;34.65;;;;;;;;;;4368891;32;20213;-82
2021/07/03 06:49:26;;;;;;;54.35;35.58;;;;;;;;;;4392576;32;20150;-83
2021/07/03 06:51:54;;;;;;;56.20;36.58;;;;;;;;;;4392340;32;20135;-83
2021/07/03 06:54:20;;;;;;;50.03;33.83;;;;;;;;;;4378602;32;20634;-83
2021/07/03 06:56:45;;;;;;;59.03;37.22;;;;;;;;;;4391981;32;20188;-82
2021/07/03 06:59:10;;;;;;;54.97;36.95;;;;;;;;;;4377120;32;20234;-82
2021/07/03 07:01:36;;;;;;;51.40;34.13;;;;;;;;;;4388324;32;20206;-82
2021/07/03 07:04:19;;;;;;;45.05;31.62;;;;;;;;;;4392523;32;20492;-83
2021/07/03 07:06:45;;;;;;;48.60;33.10;;;;;;;;;;4378460;32;20173;-83
2021/07/03 07:09:19;;;;;;;42.78;29.55;;;;;;;;;;4391780;32;20185;-82
2021/07/03 07:11:45;;;;;;;44.33;31.23;;;;;;;;;;4392334;32;20135;-82
2021/07/03 07:14:25;;;;;;;41.03;28.92;;;;;;;;;;4378352;32;20189;-81
2021/07/03 07:16:54;;;;;;;43.90;29.35;;;;;;;;;;4390929;32;20266;-81
2021/07/03 07:19:20;;;;;;;44.97;29.27;;;;;;;;;;4392225;32;20146;-81
2021/07/03 07:22:20;;;;;;;44.13;29.00;;;;;;;;;;4391745;32;20498;-82
2021/07/03 07:24:48;;;;;;;40.80;29.25;;;;;;;;;;4373970;32;20170;-81
2021/07/03 07:27:19;;;;;;;43.38;27.85;;;;;;;;;;4378619;32;20181;-82
2021/07/03 07:29:47;;;;;;;48.05;34.97;;;;;;;;;;4392247;32;20123;-81
2021/07/03 07:32:21;;;;;;;43.75;28.40;;;;;;;;;;4391540;32;20166;-81
2021/07/03 07:34:50;;;;;;;42.28;30.37;;;;;;;;;;4377875;32;20207;-82
2021/07/03 07:37:46;;;;;;;;;;;;;;;;;;;;;
2021/07/03 07:40:32;;;;;;;35.63;26.35;;;;;;;;;;4390126;32;20182;-81
2021/07/03 07:43:00;;;;;;;39.90;28.27;;;;;;;;;;4392131;32;20532;-81
2021/07/03 07:45:31;;;;;;;34.38;25.42;;;;;;;;;;4378007;32;20143;-81
2021/07/03 07:47:57;;;;;;;34.60;25.23;;;;;;;;;;4376344;32;20181;-82
2021/07/03 07:50:22;;;;;;;36.30;26.52;;;;;;;;;;4377773;32;20227;-82
2021/07/03 07:52:47;;;;;;;32.30;23.58;;;;;;;;;;4377865;32;20189;-81
2021/07/03 07:55:25;;;;;;;33.13;24.55;;;;;;;;;;4376546;32;20493;-81
2021/07/03 07:58:11;;;;;;;33.10;24.05;;;;;;;;;;4377463;32;20190;-81
2021/07/03 08:00:41;;;;;;;29.25;21.00;;;;;;;;;;4391139;32;20602;-81
2021/07/03 08:03:09;;;;;;;31.02;22.48;;;;;;;;;;4392019;32;20274;-83
2021/07/03 08:05:35;;;;;;;29.48;22.17;;;;;;;;;;4391534;32;20161;-82
2021/07/03 08:08:03;;;;;;;29.00;21.62;;;;;;;;;;4390914;32;20169;-81
2021/07/03 08:10:28;;;;;;;29.05;18.98;;;;;;;;;;4377293;32;20154;-83
2021/07/03 08:12:56;;;;;;;24.83;18.15;;;;;;;;;;4390936;32;20185;-83
2021/07/03 08:15:25;;;;;;;28.75;20.00;;;;;;;;;;4390690;32;20134;-82
2021/07/03 08:17:50;;;;;;;23.25;16.77;;;;;;;;;;4377661;32;20186;-82
2021/07/03 08:20:17;;;;;;;22.98;16.92;;;;;;;;;;4390277;32;20165;-82
2021/07/03 08:22:45;;;;;;;24.42;17.50;;;;;;;;;;4376991;32;20507;-82
2021/07/03 08:25:12;;;;;;;25.05;17.95;;;;;;;;;;4391344;32;20186;-82
2021/07/03 08:27:56;;;;;;;28.25;19.62;;;;;;;;;;4390767;32;20555;-82
2021/07/03 08:30:22;;;;;;;24.87;18.10;;;;;;;;;;4391276;32;20193;-82
2021/07/03 08:33:08;;;;;;;23.70;16.50;;;;;;;;;;4390393;32;20497;-82
2021/07/03 08:35:33;;;;;;;22.67;16.17;;;;;;;;;;4382243;32;20150;-83
2021/07/03 08:37:58;;;;;;;22.15;15.85;;;;;;;;;;4391040;32;20200;-81
2021/07/03 08:40:24;;;;;;;18.42;15.18;;;;;;;;;;4377386;32;20532;-83
2021/07/03 08:42:58;;;;;;;20.05;15.40;;;;;;;;;;4374553;32;20187;-83
2021/07/03 08:45:29;;;;;;;18.20;14.38;;;;;;;;;;4362323;32;20161;-82
2021/07/03 08:47:59;;;;;;;21.33;15.20;;;;;;;;;;4375386;32;20140;-82
2021/07/03 08:50:24;;;;;;;22.73;15.35;;;;;;;;;;4361517;32;20162;-81
2021/07/03 08:52:50;;;;;;;19.98;15.43;;;;;;;;;;4375501;32;20359;-82
2021/07/03 08:55:15;;;;;;;22.77;15.93;;;;;;;;;;4361653;32;20174;-83
2021/07/03 08:57:48;;;;;;;24.80;16.30;;;;;;;;;;4375450;32;20178;-81
2021/07/03 09:00:17;;;;;;;25.80;17.12;;;;;;;;;;4375644;32;20193;-82
2021/07/03 09:02:52;;;;;;;20.15;15.48;;;;;;;;;;4389498;32;20177;-81
2021/07/03 09:05:19;;;;;;;20.58;15.82;;;;;;;;;;4390512;32;20137;-81
2021/07/03 09:07:45;;;;;;;18.75;14.20;;;;;;;;;;4389993;32;20194;-81
2021/07/03 09:10:28;;;;;;;;;;;;;;;;;;;;;
2021/07/03 09:13:03;;;;;;;20.83;14.73;;;;;;;;;;4390470;32;20173;-83
2021/07/03 09:15:39;;;;;;;21.87;16.00;;;;;;;;;;4378529;32;20166;-83
2021/07/03 09:18:09;;;;;;;19.45;13.57;;;;;;;;;;4391558;32;20534;-82
2021/07/03 09:20:49;;;;;;;20.88;15.38;;;;;;;;;;4406053;32;20142;-81
2021/07/03 09:23:15;;;;;;;21.37;15.50;;;;;;;;;;4405719;32;20165;-80
2021/07/03 09:25:43;;;;;;;24.63;15.80;;;;;;;;;;4405012;32;20190;-83
2021/07/03 09:28:13;;;;;;;17.25;13.23;;;;;;;;;;4405060;32;20130;-81
2021/07/03 09:30:49;;;;;;;21.23;13.20;;;;;;;;;;4405086;32;20150;-82
2021/07/03 09:33:18;;;;;;;19.60;14.10;;;;;;;;;;4401656;32;20169;-82
2021/07/03 09:35:46;;;;;;;16.95;12.80;;;;;;;;;;4391602;32;20188;-82
2021/07/03 09:38:13;;;;;;;19.95;14.50;;;;;;;;;;4404932;32;20161;-82
2021/07/03 09:40:39;;;;;;;20.02;14.02;;;;;;;;;;4397681;32;20139;-82
2021/07/03 09:43:09;;;;;;;18.37;14.23;;;;;;;;;;4389671;32;20201;-83
2021/07/03 09:45:34;;;;;;;21.83;15.65;;;;;;;;;;4390141;32;20149;-83
2021/07/03 09:48:11;;;;;;;21.10;15.38;;;;;;;;;;4390344;32;20209;-82
2021/07/03 09:50:38;;;;;;;19.65;14.02;;;;;;;;;;4389704;32;20118;-82
2021/07/03 09:53:05;;;;;;;19.45;13.60;;;;;;;;;;4389679;32;20200;-81
2021/07/03 09:55:31;;;;;;;19.83;15.55;;;;;;;;;;4388284;32;20257;-81
2021/07/03 09:57:56;;;;;;;15.50;12.32;;;;;;;;;;4389918;32;20157;-81
2021/07/03 10:00:21;;;;;;;16.23;12.02;;;;;;;;;;4390086;32;20138;-82
2021/07/03 10:02:47;;;;;;;16.60;10.73;;;;;;;;;;4390943;32;20170;-83
2021/07/03 10:05:18;;;;;;;14.55;11.25;;;;;;;;;;4390970;32;20157;-81
2021/07/03 10:07:48;;;;;;;16.85;11.93;;;;;;;;;;4405817;32;20145;-82
2021/07/03 10:10:16;;;;;;;16.55;10.45;;;;;;;;;;4405484;32;20134;-81
2021/07/03 10:12:47;;;;;;;14.93;10.63;;;;;;;;;;4391193;32;20213;-81
2021/07/03 10:15:13;;;;;;;15.13;10.90;;;;;;;;;;4405200;32;20144;-82
2021/07/03 10:17:44;;;;;;;15.32;10.32;;;;;;;;;;4405058;32;20123;-80
2021/07/03 10:20:14;;;;;;;20.02;13.70;;;;;;;;;;4408361;32;20212;-81
2021/07/03 10:22:39;;;;;;;17.45;12.63;;;;;;;;;;4407907;32;20162;-82
2021/07/03 10:25:20;;;;;;;16.12;12.98;;;;;;;;;;4394136;32;20219;-81
2021/07/03 10:27:49;;;;;;;19.25;14.05;;;;;;;;;;4393119;32;20166;-81
2021/07/03 10:30:24;;;;;;;17.85;13.25;;;;;;;;;;4407009;32;20150;-82
2021/07/03 10:33:00;;;;;;;19.45;14.00;;;;;;;;;;4392968;32;20142;-83
2021/07/03 10:35:34;;;;;;;20.00;14.43;;;;;;;;;;4378598;32;20158;-82
2021/07/03 10:38:02;;;;;;;18.60;13.10;;;;;;;;;;4392861;32;20157;-82
2021/07/03 10:40:30;;;;;;;18.70;14.85;;;;;;;;;;4392734;32;20146;-81
2021/07/03 10:43:29;;;;;;;21.75;14.27;;;;;;;;;;4378518;32;20169;-82
2021/07/03 10:46:00;;;;;;;17.48;12.70;;;;;;;;;;4390162;32;20517;-81
2021/07/03 10:48:26;;;;;;;21.12;14.38;;;;;;;;;;4392707;32;20471;-81
2021/07/03 10:51:08;;;;;;;17.30;13.65;;;;;;;;;;4392300;32;20295;-81
2021/07/03 10:53:52;;;;;;;19.42;14.85;;;;;;;;;;4392436;32;20616;-80
2021/07/03 10:56:18;;;;;;;18.10;14.65;;;;;;;;;;4393416;32;20539;-82
2021/07/03 11:01:41;;;;;;;19.98;14.40;;;;;;;;;;4368474;32;20150;-82
2021/07/03 11:04:37;;;;;;;17.50;13.07;;;;;;;;;;4391779;32;20134;-81
2021/07/03 11:07:13;;;;;;;17.95;12.35;;;;;;;;;;4370413;32;20154;-82
2021/07/03 11:09:53;;;;;;;20.45;14.35;;;;;;;;;;4392079;32;20150;-82
2021/07/03 11:12:23;;;;;;;18.42;13.70;;;;;;;;;;4392438;32;20126;-83
2021/07/03 11:15:07;;;;;;;17.48;12.45;;;;;;;;;;4377701;32;20202;-82
2021/07/03 11:17:32;;;;;;;14.73;12.60;;;;;;;;;;4391221;32;20147;-82
2021/07/03 11:19:57;;;;;;;16.52;11.70;;;;;;;;;;4391024;32;20205;-82
2021/07/03 11:22:24;;;;;;;16.75;11.75;;;;;;;;;;4377752;32;20220;-81
2021/07/03 11:24:57;;;;;;;13.27;11.15;;;;;;;;;;4391808;32;20209;-83
2021/07/03 11:27:35;;;;;;;17.80;13.02;;;;;;;;;;4391855;32;20135;-82
2021/07/03 11:30:20;;;;;;;15.70;12.60;;;;;;;;;;4391497;32;20177;-81
2021/07/03 11:32:55;;;;;;;16.48;12.18;;;;;;;;;;4392297;32;20205;-82
2021/07/03 11:35:21;;;;;;;19.58;13.45;;;;;;;;;;4391511;32;20201;-82
2021/07/03 11:37:56;;;;;;;16.83;12.50;;;;;;;;;;4389936;32;20150;-81
2021/07/03 11:40:23;;;;;;;14.65;11.80;;;;;;;;;;4392344;32;20184;-82
2021/07/03 11:42:50;;;;;;;14.55;11.90;;;;;;;;;;4392062;32;20130;-82
2021/07/03 11:45:19;;;;;;;14.15;10.73;;;;;;;;;;4390039;32;20158;-82
2021/07/03 11:47:47;;;;;;;13.40;11.57;;;;;;;;;;4391642;32;20130;-81
2021/07/03 11:50:35;;;;;;;14.63;11.32;;;;;;;;;;4391333;32;20205;-81
2021/07/03 11:53:01;;;;;;;14.07;10.40;;;;;;;;;;4390569;32;20204;-82
2021/07/03 11:55:34;;;;;;;13.88;10.88;;;;;;;;;;4389854;32;20167;-81
2021/07/03 11:58:05;;;;;;;14.48;10.45;;;;;;;;;;4391302;32;20141;-81
2021/07/03 12:00:32;;;;;;;14.18;9.50;;;;;;;;;;4380567;32;20155;-82
2021/07/03 12:02:58;;;;;;;11.98;9.57;;;;;;;;;;4390993;32;20150;-81
2021/07/03 12:05:25;;;;;;;13.65;9.65;;;;;;;;;;4377883;32;20495;-81
2021/07/03 12:08:04;;;;;;;12.30;10.50;;;;;;;;;;4391013;32;20176;-81
2021/07/03 12:10:37;;;;;;;12.20;8.35;;;;;;;;;;4406630;32;20126;-82
2021/07/03 12:13:05;;;;;;;11.07;9.57;;;;;;;;;;4405948;32;20421;-82
2021/07/03 12:15:30;;;;;;;10.55;9.07;;;;;;;;;;4392581;32;20190;-81
2021/07/03 12:17:57;;;;;;;14.68;9.45;;;;;;;;;;4406519;32;20616;-81
2021/07/03 12:20:26;;;;;;;10.95;9.23;;;;;;;;;;4392346;32;20154;-82
2021/07/03 12:23:10;;;;;;;14.75;10.80;;;;;;;;;;4406677;32;20154;-82
2021/07/03 12:25:37;;;;;;;11.73;10.15;;;;;;;;;;4406243;32;20126;-82
2021/07/03 12:28:06;;;;;;;12.23;10.18;;;;;;;;;;4406143;32;20184;-82
2021/07/03 12:30:32;;;;;;;12.95;9.55;;;;;;;;;;4406158;32;20211;-81
2021/07/03 12:33:05;;;;;;;14.63;10.73;;;;;;;;;;4405995;32;20169;-81
2021/07/03 12:35:38;;;;;;;13.73;10.13;;;;;;;;;;4391666;32;20155;-81
2021/07/03 12:38:04;;;;;;;12.52;9.75;;;;;;;;;;4406503;32;20485;-82
2021/07/03 12:40:33;;;;;;;11.63;8.55;;;;;;;;;;4391603;32;20571;-80
2021/07/03 12:43:02;;;;;;;10.45;9.35;;;;;;;;;;4405322;32;20165;-83
2021/07/03 12:45:31;;;;;;;11.73;9.68;;;;;;;;;;4385428;32;20166;-81
2021/07/03 12:48:16;;;;;;;12.68;8.52;;;;;;;;;;4376866;32;20158;-81
2021/07/03 12:50:48;;;;;;;11.77;8.43;;;;;;;;;;4390909;32;20161;-81
2021/07/03 12:53:14;;;;;;;12.60;9.80;;;;;;;;;;4376943;32;20244;-81
2021/07/03 12:56:03;;;;;;;10.60;8.63;;;;;;;;;;4377389;32;20204;-81
2021/07/03 12:58:29;;;;;;;10.63;8.98;;;;;;;;;;4390728;32;20174;-81
2021/07/03 13:01:06;;;;;;;9.70;8.68;;;;;;;;;;4390250;32;20139;-81
2021/07/03 13:03:43;;;;;;;12.65;9.10;;;;;;;;;;4390574;32;20189;-81
2021/07/03 13:06:08;;;;;;;11.65;9.45;;;;;;;;;;4390797;32;20191;-80
2021/07/03 13:08:35;;;;;;;17.42;9.95;;;;;;;;;;4377079;32;20567;-82
2021/07/03 13:11:06;;;;;;;13.23;8.73;;;;;;;;;;4390475;32;20605;-82
2021/07/03 13:13:37;;;;;;;12.77;9.13;;;;;;;;;;4391543;32;20493;-82
2021/07/03 13:16:21;;;;;;;12.65;9.18;;;;;;;;;;4390042;32;20535;-81
2021/07/03 13:18:47;;;;;;;9.77;8.30;;;;;;;;;;4390101;32;20225;-81
2021/07/03 13:21:14;;;;;;;9.38;8.30;;;;;;;;;;4390279;32;20134;-81
2021/07/03 13:23:40;;;;;;;10.95;8.00;;;;;;;;;;4390061;32;20177;-83
2021/07/03 13:26:06;;;;;;;10.23;8.45;;;;;;;;;;4389867;32;20128;-81
2021/07/03 13:28:32;;;;;;;10.30;8.75;;;;;;;;;;4376059;32;20194;-81
2021/07/03 13:31:10;;;;;;;;;;;;;;;;;;;;;
2021/07/03 13:33:38;;;;;;;9.48;8.48;;;;;;;;;;4390625;32;20150;-82
2021/07/03 13:36:17;;;;;;;;;;;;;;;;;;;;;
2021/07/03 13:39:03;;;;;;;10.30;7.75;;;;;;;;;;4390153;32;20150;-81
2021/07/03 13:41:28;;;;;;;10.43;7.85;;;;;;;;;;4389358;32;20180;-82
2021/07/03 13:44:02;;;;;;;9.75;7.97;;;;;;;;;;4402469;32;20209;-82
2021/07/03 13:46:39;;;;;;;11.25;8.38;;;;;;;;;;4391432;32;20158;-81
2021/07/03 13:49:05;;;;;;;11.05;9.02;;;;;;;;;;4405200;32;20129;-82
2021/07/03 13:51:30;;;;;;;11.45;8.52;;;;;;;;;;4405023;32;20185;-82
2021/07/03 13:53:56;;;;;;;10.73;8.70;;;;;;;;;;4393768;32;20159;-81
2021/07/03 13:56:27;;;;;;;10.98;9.25;;;;;;;;;;4408577;32;20216;-81
2021/07/03 13:58:52;;;;;;;11.90;8.82;;;;;;;;;;4408340;32;20145;-83
2021/07/03 14:01:18;;;;;;;11.73;9.38;;;;;;;;;;4408183;32;20559;-82
2021/07/03 14:03:43;;;;;;;10.73;8.40;;;;;;;;;;4408513;32;20134;-83
2021/07/03 14:06:14;;;;;;;9.95;8.95;;;;;;;;;;4408417;32;20139;-82
2021/07/03 14:08:42;;;;;;;10.18;9.05;;;;;;;;;;4395407;32;20181;-81
2021/07/03 14:11:07;;;;;;;11.02;9.50;;;;;;;;;;4394377;32;20212;-82
2021/07/03 14:13:36;;;;;;;11.82;8.63;;;;;;;;;;4394437;32;20598;-82
2021/07/03 14:16:13;;;;;;;9.93;8.75;;;;;;;;;;4394707;32;20182;-81
2021/07/03 14:18:41;;;;;;;12.02;8.48;;;;;;;;;;4393702;32;20188;-83
2021/07/03 14:21:12;;;;;;;14.07;9.82;;;;;;;;;;4409061;32;20142;-81
2021/07/03 14:23:37;;;;;;;12.20;9.85;;;;;;;;;;4409413;32;20161;-81
2021/07/03 14:26:06;;;;;;;14.23;9.90;;;;;;;;;;4394967;32;20486;-81
2021/07/03 14:28:31;;;;;;;13.20;9.50;;;;;;;;;;4408931;32;20161;-81
2021/07/03 14:30:57;;;;;;;16.73;10.85;;;;;;;;;;4394682;32;20269;-82
2021/07/03 14:33:23;;;;;;;11.57;10.38;;;;;;;;;;4408693;32;20535;-82
2021/07/03 14:35:52;;;;;;;12.77;9.30;;;;;;;;;;4399716;32;20147;-82
2021/07/03 14:38:17;;;;;;;12.32;9.65;;;;;;;;;;4393391;32;20540;-82
2021/07/03 14:40:43;;;;;;;17.23;10.90;;;;;;;;;;4392516;32;20175;-82
2021/07/03 14:43:08;;;;;;;15.40;11.98;;;;;;;;;;4391405;32;20170;-82
2021/07/03 14:45:34;;;;;;;16.08;10.93;;;;;;;;;;4392574;32;20150;-81
2021/07/03 14:47:59;;;;;;;12.98;11.30;;;;;;;;;;4392727;32;20165;-81
2021/07/03 14:50:24;;;;;;;14.73;12.48;;;;;;;;;;4391291;32;20162;-81
2021/07/03 14:52:50;;;;;;;16.40;11.05;;;;;;;;;;4392413;32;20191;-82
2021/07/03 14:55:15;;;;;;;12.65;10.98;;;;;;;;;;4393704;32;20166;-82
2021/07/03 14:57:44;;;;;;;13.52;10.20;;;;;;;;;;4393483;32;20189;-82
2021/07/03 15:00:10;;;;;;;16.65;10.00;;;;;;;;;;4393298;32;20166;-81
2021/07/03 15:02:35;;;;;;;10.95;7.95;;;;;;;;;;4394037;32;20188;-81
2021/07/03 15:05:03;;;;;;;13.88;9.10;;;;;;;;;;4406667;32;20165;-82
2021/07/03 15:07:29;;;;;;;10.02;7.12;;;;;;;;;;4404076;32;20142;-81
2021/07/03 15:09:59;;;;;;;8.65;6.37;;;;;;;;;;4406748;32;20135;-82
2021/07/03 15:12:33;;;;;;;8.48;6.47;;;;;;;;;;4407873;32;20457;-82
2021/07/03 15:14:59;;;;;;;11.20;8.10;;;;;;;;;;4393585;32;20158;-81
2021/07/03 15:17:24;;;;;;;9.05;8.10;;;;;;;;;;4405741;32;20161;-81
2021/07/03 15:19:52;;;;;;;13.30;9.20;;;;;;;;;;4407443;32;20528;-83
2021/07/03 15:22:21;;;;;;;11.50;9.13;;;;;;;;;;4407497;32;20142;-82
2021/07/03 15:24:46;;;;;;;18.95;11.57;;;;;;;;;;4406926;32;20165;-81
2021/07/03 15:27:11;;;;;;;17.15;11.80;;;;;;;;;;4392994;32;20170;-81
2021/07/03 15:29:41;;;;;;;15.32;10.95;;;;;;;;;;4406932;32;20141;-82
2021/07/03 15:32:09;;;;;;;17.60;11.23;;;;;;;;;;4407251;32;20243;-81
2021/07/03 15:34:34;;;;;;;17.52;12.82;;;;;;;;;;4407370;32;20527;-82